sensor_id;sensor_type;location;lat;lon;timestamp;pressure;altitude;pressure_sealevel;temperature;humidity
78625;BME280;67944;0.000;0.000;2023-04-03T00:00:59;101703.06;;;19.70;36.92
78625;BME280;67944;0.000;0.000;2023-04-03T00:03:25;101701.97;;;19.73;37.46
78625;BME280;67944;0.000;0.000;2023-04-03T00:05:50;101699.19;;;19.74;37.25
78625;BME280;67944;0.000;0.000;2023-04-03T00:08:16;101700.56;;;19.78;37.46
78625;BME280;67944;0.000;0.000;2023-04-03T00:10:41;101708.34;;;19.80;36.89
78625;BME280;67944;0.000;0.000;2023-04-03T00:13:08;101705.56;;;19.81;36.97
78625;BME280;67944;0.000;0.000;2023-04-03T00:15:35;101705.41;;;19.83;36.60
78625;BME280;67944;0.000;0.000;2023-04-03T00:18:01;101707.09;;;19.84;36.69
78625;BME280;67944;0.000;0.000;2023-04-03T00:20:27;101706.78;;;19.87;36.76
78625;BME280;67944;0.000;0.000;2023-04-03T00:22:53;101710.97;;;19.90;37.13
78625;BME280;67944;0.000;0.000;2023-04-03T00:25:19;101710.81;;;19.91;36.82
78625;BME280;67944;0.000;0.000;2023-04-03T00:27:45;101709.66;;;19.94;36.93
78625;BME280;67944;0.000;0.000;2023-04-03T00:30:14;101713.00;;;19.96;36.70
78625;BME280;67944;0.000;0.000;2023-04-03T00:32:40;101713.84;;;19.96;36.71
78625;BME280;67944;0.000;0.000;2023-04-03T00:35:06;101712.72;;;19.99;36.79
78625;BME280;67944;0.000;0.000;2023-04-03T00:37:32;101712.56;;;20.00;35.99
78625;BME280;67944;0.000;0.000;2023-04-03T00:39:57;101718.56;;;20.02;36.39
78625;BME280;67944;0.000;0.000;2023-04-03T00:42:23;101714.94;;;20.03;36.55
78625;BME280;67944;0.000;0.000;2023-04-03T00:47:17;101718.97;;;20.07;36.04
78625;BME280;67944;0.000;0.000;2023-04-03T00:49:44;101728.56;;;20.08;35.96
78625;BME280;67944;0.000;0.000;2023-04-03T00:52:15;101728.28;;;20.11;36.35
78625;BME280;67944;0.000;0.000;2023-04-03T00:54:42;101724.66;;;20.12;35.88
78625;BME280;67944;0.000;0.000;2023-04-03T00:57:10;101727.13;;;20.14;35.93
78625;BME280;67944;0.000;0.000;2023-04-03T00:59:45;101726.00;;;20.16;35.86
78625;BME280;67944;0.000;0.000;2023-04-03T01:02:12;101722.38;;;20.17;35.70
78625;BME280;67944;0.000;0.000;2023-04-03T01:04:42;101716.09;;;20.18;35.60
78625;BME280;67944;0.000;0.000;2023-04-03T01:07:30;101723.75;;;20.22;35.38
78625;BME280;67944;0.000;0.000;2023-04-03T01:09:58;101715.81;;;20.22;35.64
78625;BME280;67944;0.000;0.000;2023-04-03T01:12:27;101711.22;;;20.24;35.56
78625;BME280;67944;0.000;0.000;2023-04-03T01:14:57;101718.84;;;20.27;35.17
78625;BME280;67944;0.000;0.000;2023-04-03T01:17:33;101711.75;;;20.27;35.12
78625;BME280;67944;0.000;0.000;2023-04-03T01:23:12;101713.97;;;20.32;35.05
78625;BME280;67944;0.000;0.000;2023-04-03T01:28:16;101712.00;;;20.34;35.38
78625;BME280;67944;0.000;0.000;2023-04-03T01:33:14;101711.84;;;20.35;35.59
78625;BME280;67944;0.000;0.000;2023-04-03T01:35:39;101711.72;;;20.37;35.00
78625;BME280;67944;0.000;0.000;2023-04-03T01:38:05;101721.19;;;20.39;35.26
78625;BME280;67944;0.000;0.000;2023-04-03T01:40:30;101719.38;;;20.40;34.89
78625;BME280;67944;0.000;0.000;2023-04-03T01:42:56;101724.50;;;20.41;34.89
78625;BME280;67944;0.000;0.000;2023-04-03T01:45:21;101717.41;;;20.42;35.07
78625;BME280;67944;0.000;0.000;2023-04-03T01:47:46;101717.25;;;20.43;34.96
78625;BME280;67944;0.000;0.000;2023-04-03T01:50:12;101732.84;;;20.46;35.25
78625;BME280;67944;0.000;0.000;2023-04-03T01:52:37;101721.44;;;20.46;35.20
78625;BME280;67944;0.000;0.000;2023-04-03T01:55:03;101734.38;;;20.49;34.37
78625;BME280;67944;0.000;0.000;2023-04-03T01:57:28;101730.75;;;20.50;34.82
78625;BME280;67944;0.000;0.000;2023-04-03T01:59:54;101725.44;;;20.50;35.01
78625;BME280;67944;0.000;0.000;2023-04-03T02:02:19;101722.94;;;20.48;34.83
78625;BME280;67944;0.000;0.000;2023-04-03T02:04:46;101721.81;;;20.51;34.47
78625;BME280;67944;0.000;0.000;2023-04-03T02:07:11;101735.59;;;20.55;34.64
78625;BME280;67944;0.000;0.000;2023-04-03T02:09:37;101731.97;;;20.56;34.62
78625;BME280;67944;0.000;0.000;2023-04-03T02:12:02;101735.44;;;20.56;34.30
78625;BME280;67944;0.000;0.000;2023-04-03T02:14:28;101730.16;;;20.56;34.11
78625;BME280;67944;0.000;0.000;2023-04-03T02:16:53;101734.44;;;20.57;34.93
78625;BME280;67944;0.000;0.000;2023-04-03T02:19:18;101734.44;;;20.57;34.17
78625;BME280;67944;0.000;0.000;2023-04-03T02:21:44;101731.63;;;20.59;34.74
78625;BME280;67944;0.000;0.000;2023-04-03T02:24:10;101725.38;;;20.60;34.40
78625;BME280;67944;0.000;0.000;2023-04-03T02:26:35;101731.50;;;20.60;33.89
78625;BME280;67944;0.000;0.000;2023-04-03T02:29:00;101723.56;;;20.60;34.41
78625;BME280;67944;0.000;0.000;2023-04-03T02:31:26;101724.38;;;20.61;33.86
78625;BME280;67944;0.000;0.000;2023-04-03T02:33:51;101714.47;;;20.63;34.46
78625;BME280;67944;0.000;0.000;2023-04-03T02:36:17;101725.75;;;20.65;34.37
78625;BME280;67944;0.000;0.000;2023-04-03T02:38:42;101726.59;;;20.65;34.53
78625;BME280;67944;0.000;0.000;2023-04-03T02:41:10;101724.78;;;20.66;34.03
78625;BME280;67944;0.000;0.000;2023-04-03T02:43:36;101722.13;;;20.66;34.39
78625;BME280;67944;0.000;0.000;2023-04-03T02:46:02;101717.66;;;20.66;33.65
78625;BME280;67944;0.000;0.000;2023-04-03T02:48:28;101730.75;;;20.68;33.79
78625;BME280;67944;0.000;0.000;2023-04-03T02:50:53;101720.16;;;20.68;33.85
78625;BME280;67944;0.000;0.000;2023-04-03T02:53:19;101721.00;;;20.68;33.97
78625;BME280;67944;0.000;0.000;2023-04-03T02:55:44;101714.72;;;20.69;34.19
78625;BME280;67944;0.000;0.000;2023-04-03T02:58:10;101719.03;;;20.70;33.42
78625;BME280;67944;0.000;0.000;2023-04-03T03:00:36;101715.41;;;20.71;33.34
78625;BME280;67944;0.000;0.000;2023-04-03T03:03:01;101715.41;;;20.71;33.53
78625;BME280;67944;0.000;0.000;2023-04-03T03:05:27;101712.63;;;20.73;33.34
78625;BME280;67944;0.000;0.000;2023-04-03T03:07:53;101715.25;;;20.73;33.70
78625;BME280;67944;0.000;0.000;2023-04-03T03:10:19;101709.81;;;20.74;33.55
78625;BME280;67944;0.000;0.000;2023-04-03T03:12:45;101714.13;;;20.75;33.98
78625;BME280;67944;0.000;0.000;2023-04-03T03:15:11;101715.81;;;20.76;33.64
78625;BME280;67944;0.000;0.000;2023-04-03T03:17:36;101711.63;;;20.74;33.30
78625;BME280;67944;0.000;0.000;2023-04-03T03:20:03;101715.00;;;20.48;32.83
78625;BME280;67944;0.000;0.000;2023-04-03T03:22:28;101717.88;;;20.00;31.60
78625;BME280;67944;0.000;0.000;2023-04-03T03:24:54;101722.88;;;19.47;31.59
78625;BME280;67944;0.000;0.000;2023-04-03T03:27:20;101719.84;;;18.94;30.87
78625;BME280;67944;0.000;0.000;2023-04-03T03:29:46;101720.59;;;18.46;30.70
78625;BME280;67944;0.000;0.000;2023-04-03T03:32:11;101724.06;;;18.06;29.87
78625;BME280;67944;0.000;0.000;2023-04-03T03:34:36;101720.03;;;17.72;30.16
78625;BME280;67944;0.000;0.000;2023-04-03T03:37:02;101717.56;;;17.38;29.72
78625;BME280;67944;0.000;0.000;2023-04-03T03:39:27;101722.66;;;17.09;29.56
78625;BME280;67944;0.000;0.000;2023-04-03T03:41:53;101719.63;;;16.82;29.76
78625;BME280;67944;0.000;0.000;2023-04-03T03:44:19;101717.88;;;16.60;30.08
78625;BME280;67944;0.000;0.000;2023-04-03T03:46:45;101724.22;;;16.46;30.21
78625;BME280;67944;0.000;0.000;2023-04-03T03:49:10;101723.41;;;16.35;30.24
78625;BME280;67944;0.000;0.000;2023-04-03T03:51:37;101719.34;;;16.31;30.27
78625;BME280;67944;0.000;0.000;2023-04-03T03:54:03;101718.88;;;16.37;30.34
78625;BME280;67944;0.000;0.000;2023-04-03T03:56:28;101723.97;;;16.50;29.63
78625;BME280;67944;0.000;0.000;2023-04-03T03:58:54;101716.69;;;16.64;30.48
78625;BME280;67944;0.000;0.000;2023-04-03T04:01:22;101721.44;;;16.82;30.24
78625;BME280;67944;0.000;0.000;2023-04-03T04:03:48;101715.75;;;16.97;30.23
78625;BME280;67944;0.000;0.000;2023-04-03T04:06:14;101716.28;;;17.12;30.31
78625;BME280;67944;0.000;0.000;2023-04-03T04:08:39;101722.09;;;17.27;30.09
78625;BME280;67944;0.000;0.000;2023-04-03T04:11:06;101718.16;;;17.42;30.24
78625;BME280;67944;0.000;0.000;2023-04-03T04:13:31;101722.13;;;17.57;30.52
78625;BME280;67944;0.000;0.000;2023-04-03T04:15:57;101726.16;;;17.72;30.46
78625;BME280;67944;0.000;0.000;2023-04-03T04:18:22;101718.97;;;17.84;30.24
78625;BME280;67944;0.000;0.000;2023-04-03T04:20:49;101726.69;;;17.97;30.31
78625;BME280;67944;0.000;0.000;2023-04-03T04:23:16;101727.28;;;18.10;30.36
78625;BME280;67944;0.000;0.000;2023-04-03T04:25:47;101727.16;;;18.21;30.52
78625;BME280;67944;0.000;0.000;2023-04-03T04:28:13;101727.91;;;18.33;30.42
78625;BME280;67944;0.000;0.000;2023-04-03T04:30:38;101722.66;;;18.42;30.26
78625;BME280;67944;0.000;0.000;2023-04-03T04:33:04;101721.84;;;18.52;30.67
78625;BME280;67944;0.000;0.000;2023-04-03T04:35:30;101717.63;;;18.60;30.08
78625;BME280;67944;0.000;0.000;2023-04-03T04:37:55;101716.63;;;18.71;30.62
78625;BME280;67944;0.000;0.000;2023-04-03T04:40:21;101721.25;;;18.78;30.20
78625;BME280;67944;0.000;0.000;2023-04-03T04:42:47;101720.41;;;18.88;30.53
78625;BME280;67944;0.000;0.000;2023-04-03T04:45:12;101729.31;;;18.96;30.75
78625;BME280;67944;0.000;0.000;2023-04-03T04:47:38;101721.53;;;19.04;30.35
78625;BME280;67944;0.000;0.000;2023-04-03T04:50:04;101729.44;;;19.14;30.65
78625;BME280;67944;0.000;0.000;2023-04-03T04:52:29;101733.19;;;19.21;30.29
78625;BME280;67944;0.000;0.000;2023-04-03T04:54:55;101717.47;;;19.29;30.64
78625;BME280;67944;0.000;0.000;2023-04-03T04:57:20;101717.75;;;19.36;30.15
78625;BME280;67944;0.000;0.000;2023-04-03T04:59:46;101724.13;;;19.43;30.14
78625;BME280;67944;0.000;0.000;2023-04-03T05:02:11;101716.63;;;19.48;30.44
78625;BME280;67944;0.000;0.000;2023-04-03T05:04:36;101723.00;;;19.55;30.56
78625;BME280;67944;0.000;0.000;2023-04-03T05:07:02;101721.63;;;19.61;30.62
78625;BME280;67944;0.000;0.000;2023-04-03T05:09:27;101731.63;;;19.67;30.00
78625;BME280;67944;0.000;0.000;2023-04-03T05:11:53;101724.91;;;19.72;30.37
78625;BME280;67944;0.000;0.000;2023-04-03T05:14:18;101732.28;;;19.78;30.47
78625;BME280;67944;0.000;0.000;2023-04-03T05:16:44;101737.84;;;19.85;30.09
78625;BME280;67944;0.000;0.000;2023-04-03T05:19:09;101742.56;;;19.91;29.80
78625;BME280;67944;0.000;0.000;2023-04-03T05:21:35;101744.72;;;19.96;30.12
78625;BME280;67944;0.000;0.000;2023-04-03T05:24:01;101738.03;;;20.01;30.04
78625;BME280;67944;0.000;0.000;2023-04-03T05:26:29;101742.75;;;20.07;30.10
78625;BME280;67944;0.000;0.000;2023-04-03T05:28:55;101741.50;;;20.11;30.62
78625;BME280;67944;0.000;0.000;2023-04-03T05:31:20;101743.53;;;20.17;30.01
78625;BME280;67944;0.000;0.000;2023-04-03T05:33:45;101744.78;;;20.23;30.58
78625;BME280;67944;0.000;0.000;2023-04-03T05:36:12;101751.28;;;20.29;30.45
78625;BME280;67944;0.000;0.000;2023-04-03T05:38:39;101757.00;;;20.34;30.12
78625;BME280;67944;0.000;0.000;2023-04-03T05:41:05;101752.78;;;20.41;29.98
78625;BME280;67944;0.000;0.000;2023-04-03T05:43:31;101755.81;;;20.46;29.83
78625;BME280;67944;0.000;0.000;2023-04-03T05:45:57;101748.28;;;20.51;30.54
78625;BME280;67944;0.000;0.000;2023-04-03T05:48:23;101760.09;;;20.57;30.20
78625;BME280;67944;0.000;0.000;2023-04-03T05:50:48;101756.84;;;20.63;29.74
78625;BME280;67944;0.000;0.000;2023-04-03T05:53:28;101758.06;;;20.68;30.35
78625;BME280;67944;0.000;0.000;2023-04-03T05:55:55;101758.44;;;20.73;30.12
78625;BME280;67944;0.000;0.000;2023-04-03T05:58:20;101753.56;;;20.78;29.97
78625;BME280;67944;0.000;0.000;2023-04-03T06:00:46;101768.81;;;20.84;29.77
78625;BME280;67944;0.000;0.000;2023-04-03T06:03:11;101761.25;;;20.90;30.19
78625;BME280;67944;0.000;0.000;2023-04-03T06:05:36;101765.13;;;20.95;30.37
78625;BME280;67944;0.000;0.000;2023-04-03T06:08:02;101764.69;;;21.00;30.20
78625;BME280;67944;0.000;0.000;2023-04-03T06:10:28;101761.69;;;21.03;30.12
78625;BME280;67944;0.000;0.000;2023-04-03T06:12:54;101769.19;;;21.07;29.65
78625;BME280;67944;0.000;0.000;2023-04-03T06:15:19;101769.75;;;21.11;30.19
78625;BME280;67944;0.000;0.000;2023-04-03T06:17:45;101765.81;;;21.15;30.12
78625;BME280;67944;0.000;0.000;2023-04-03T06:20:11;101774.28;;;21.18;30.28
78625;BME280;67944;0.000;0.000;2023-04-03T06:22:37;101772.16;;;21.22;30.50
78625;BME280;67944;0.000;0.000;2023-04-03T06:25:03;101773.69;;;21.25;30.45
78625;BME280;67944;0.000;0.000;2023-04-03T06:27:29;101776.03;;;21.28;29.98
78625;BME280;67944;0.000;0.000;2023-04-03T06:29:54;101772.94;;;21.32;29.73
78625;BME280;67944;0.000;0.000;2023-04-03T06:32:20;101784.91;;;21.36;29.86
78625;BME280;67944;0.000;0.000;2023-04-03T06:34:45;101786.25;;;21.40;30.10
78625;BME280;67944;0.000;0.000;2023-04-03T06:37:20;101783.13;;;21.45;29.62
78625;BME280;67944;0.000;0.000;2023-04-03T06:39:47;101785.63;;;21.46;30.02
78625;BME280;67944;0.000;0.000;2023-04-03T06:42:13;101794.94;;;21.50;30.24
78625;BME280;67944;0.000;0.000;2023-04-03T06:44:38;101793.66;;;21.54;29.63
78625;BME280;67944;0.000;0.000;2023-04-03T06:47:04;101797.66;;;21.59;29.79
78625;BME280;67944;0.000;0.000;2023-04-03T06:49:29;101790.25;;;21.62;29.69
78625;BME280;67944;0.000;0.000;2023-04-03T06:51:55;101793.41;;;21.66;30.29
78625;BME280;67944;0.000;0.000;2023-04-03T06:54:21;101798.38;;;21.69;29.66
78625;BME280;67944;0.000;0.000;2023-04-03T06:56:47;101795.44;;;21.72;30.35
78625;BME280;67944;0.000;0.000;2023-04-03T06:59:12;101800.28;;;21.76;29.94
78625;BME280;67944;0.000;0.000;2023-04-03T07:01:38;101799.00;;;21.80;29.71
78625;BME280;67944;0.000;0.000;2023-04-03T07:04:04;101805.66;;;21.84;29.91
78625;BME280;67944;0.000;0.000;2023-04-03T07:06:31;101803.69;;;21.86;30.00
78625;BME280;67944;0.000;0.000;2023-04-03T07:08:57;101819.06;;;21.83;29.75
78625;BME280;67944;0.000;0.000;2023-04-03T07:11:23;101814.91;;;21.80;30.05
78625;BME280;67944;0.000;0.000;2023-04-03T07:13:49;101814.06;;;21.80;29.68
78625;BME280;67944;0.000;0.000;2023-04-03T07:16:14;101817.56;;;21.80;29.66
78625;BME280;67944;0.000;0.000;2023-04-03T07:18:40;101812.94;;;21.82;29.55
78625;BME280;67944;0.000;0.000;2023-04-03T07:21:06;101827.69;;;21.85;29.45
78625;BME280;67944;0.000;0.000;2023-04-03T07:23:32;101827.34;;;21.88;29.57
78625;BME280;67944;0.000;0.000;2023-04-03T07:25:57;101827.06;;;21.91;29.82
78625;BME280;67944;0.000;0.000;2023-04-03T07:28:23;101823.94;;;21.96;29.92
78625;BME280;67944;0.000;0.000;2023-04-03T07:30:52;101829.78;;;21.99;29.43
78625;BME280;67944;0.000;0.000;2023-04-03T07:33:21;101826.69;;;22.04;29.85
78625;BME280;67944;0.000;0.000;2023-04-03T07:35:47;101831.53;;;22.08;29.84
78625;BME280;67944;0.000;0.000;2023-04-03T07:38:12;101831.19;;;22.11;29.60
78625;BME280;67944;0.000;0.000;2023-04-03T07:40:39;101833.53;;;22.14;29.91
78625;BME280;67944;0.000;0.000;2023-04-03T07:43:05;101836.03;;;22.16;29.85
78625;BME280;67944;0.000;0.000;2023-04-03T07:45:34;101832.38;;;22.17;29.90
78625;BME280;67944;0.000;0.000;2023-04-03T07:48:00;101833.06;;;22.19;29.84
78625;BME280;67944;0.000;0.000;2023-04-03T07:50:26;101832.91;;;22.20;30.01
78625;BME280;67944;0.000;0.000;2023-04-03T07:52:53;101837.91;;;22.23;29.90
78625;BME280;67944;0.000;0.000;2023-04-03T07:55:21;101830.63;;;22.26;29.74
78625;BME280;67944;0.000;0.000;2023-04-03T07:57:46;101827.81;;;22.27;30.15
78625;BME280;67944;0.000;0.000;2023-04-03T08:00:14;101837.28;;;22.30;30.11
78625;BME280;67944;0.000;0.000;2023-04-03T08:02:40;101836.28;;;22.31;30.13
78625;BME280;67944;0.000;0.000;2023-04-03T08:05:05;101840.44;;;22.33;29.96
78625;BME280;67944;0.000;0.000;2023-04-03T08:07:31;101850.06;;;22.34;29.67
78625;BME280;67944;0.000;0.000;2023-04-03T08:09:56;101847.25;;;22.36;30.33
78625;BME280;67944;0.000;0.000;2023-04-03T08:12:22;101842.63;;;22.38;30.08
78625;BME280;67944;0.000;0.000;2023-04-03T08:14:47;101843.28;;;22.40;29.88
78625;BME280;67944;0.000;0.000;2023-04-03T08:17:13;101847.63;;;22.41;29.56
78625;BME280;67944;0.000;0.000;2023-04-03T08:19:39;101853.59;;;22.43;30.00
78625;BME280;67944;0.000;0.000;2023-04-03T08:22:05;101841.16;;;22.43;30.07
78625;BME280;67944;0.000;0.000;2023-04-03T08:24:35;101848.97;;;22.45;29.87
78625;BME280;67944;0.000;0.000;2023-04-03T08:27:01;101846.16;;;22.46;30.23
78625;BME280;67944;0.000;0.000;2023-04-03T08:29:27;101847.81;;;22.47;30.14
78625;BME280;67944;0.000;0.000;2023-04-03T08:31:52;101837.03;;;22.49;30.23
78625;BME280;67944;0.000;0.000;2023-04-03T08:34:19;101843.03;;;22.51;30.18
78625;BME280;67944;0.000;0.000;2023-04-03T08:36:44;101840.19;;;22.52;30.13
78625;BME280;67944;0.000;0.000;2023-04-03T08:39:11;101839.03;;;22.55;30.38
78625;BME280;67944;0.000;0.000;2023-04-03T08:41:39;101844.19;;;22.56;30.44
78625;BME280;67944;0.000;0.000;2023-04-03T08:44:26;101842.06;;;22.60;30.08
78625;BME280;67944;0.000;0.000;2023-04-03T08:47:18;101839.91;;;22.64;30.17
78625;BME280;67944;0.000;0.000;2023-04-03T08:49:57;101831.78;;;22.65;30.21
78625;BME280;67944;0.000;0.000;2023-04-03T08:52:42;101838.63;;;22.68;30.26
78625;BME280;67944;0.000;0.000;2023-04-03T08:55:22;101841.94;;;22.70;30.28
78625;BME280;67944;0.000;0.000;2023-04-03T08:57:57;101838.13;;;22.72;30.04
78625;BME280;67944;0.000;0.000;2023-04-03T09:00:30;101841.44;;;22.74;30.42
78625;BME280;67944;0.000;0.000;2023-04-03T09:02:57;101847.28;;;22.78;30.27
78625;BME280;67944;0.000;0.000;2023-04-03T09:11:41;101844.16;;;22.82;29.98
78625;BME280;67944;0.000;0.000;2023-04-03T09:14:30;101845.81;;;22.83;30.03
78625;BME280;67944;0.000;0.000;2023-04-03T09:17:21;101845.66;;;22.85;30.06
78625;BME280;67944;0.000;0.000;2023-04-03T09:20:08;101848.00;;;22.88;30.02
78625;BME280;67944;0.000;0.000;2023-04-03T09:22:41;101850.66;;;22.88;29.92
78625;BME280;67944;0.000;0.000;2023-04-03T09:25:22;101843.53;;;22.88;30.09
78625;BME280;67944;0.000;0.000;2023-04-03T09:27:48;101853.16;;;22.89;29.89
78625;BME280;67944;0.000;0.000;2023-04-03T09:30:17;101843.53;;;22.88;29.62
78625;BME280;67944;0.000;0.000;2023-04-03T09:32:46;101839.03;;;22.89;29.39
78625;BME280;67944;0.000;0.000;2023-04-03T09:35:33;101846.84;;;22.90;29.47
78625;BME280;67944;0.000;0.000;2023-04-03T09:38:01;101846.69;;;22.92;29.41
78625;BME280;67944;0.000;0.000;2023-04-03T09:42:55;101835.91;;;22.94;29.46
78625;BME280;67944;0.000;0.000;2023-04-03T09:45:27;101841.53;;;22.90;29.15
78625;BME280;67944;0.000;0.000;2023-04-03T09:48:06;101836.53;;;22.87;28.94
78625;BME280;67944;0.000;0.000;2023-04-03T09:50:34;101826.91;;;22.86;28.66
78625;BME280;67944;0.000;0.000;2023-04-03T09:53:11;101839.88;;;22.89;28.73
78625;BME280;67944;0.000;0.000;2023-04-03T09:55:50;101831.91;;;22.89;28.62
78625;BME280;67944;0.000;0.000;2023-04-03T09:58:32;101838.88;;;22.90;28.73
78625;BME280;67944;0.000;0.000;2023-04-03T10:01:00;101842.38;;;22.91;28.44
78625;BME280;67944;0.000;0.000;2023-04-03T10:03:30;101827.25;;;22.92;28.75
78625;BME280;67944;0.000;0.000;2023-04-03T10:05:58;101835.91;;;22.94;28.50
78625;BME280;67944;0.000;0.000;2023-04-03T10:08:30;101834.25;;;22.93;28.52
78625;BME280;67944;0.000;0.000;2023-04-03T10:11:10;101824.44;;;22.93;28.71
78625;BME280;67944;0.000;0.000;2023-04-03T10:13:36;101828.78;;;22.94;28.63
78625;BME280;67944;0.000;0.000;2023-04-03T10:16:11;101820.81;;;22.94;29.04
78625;BME280;67944;0.000;0.000;2023-04-03T10:18:45;101822.44;;;22.95;28.86
78625;BME280;67944;0.000;0.000;2023-04-03T10:24:09;101820.94;;;22.84;28.71
78625;BME280;67944;0.000;0.000;2023-04-03T10:27:06;101817.09;;;22.79;28.90
78625;BME280;67944;0.000;0.000;2023-04-03T10:29:47;101810.13;;;22.78;28.70
78625;BME280;67944;0.000;0.000;2023-04-03T10:32:40;101809.13;;;22.79;28.80
78625;BME280;67944;0.000;0.000;2023-04-03T10:35:30;101815.94;;;22.81;28.83
78625;BME280;67944;0.000;0.000;2023-04-03T10:41:09;101805.00;;;22.84;29.18
78625;BME280;67944;0.000;0.000;2023-04-03T10:43:57;101807.31;;;22.87;28.81
78625;BME280;67944;0.000;0.000;2023-04-03T10:46:38;101810.97;;;22.86;28.72
78625;BME280;67944;0.000;0.000;2023-04-03T10:49:48;101817.63;;;22.90;28.72
78625;BME280;67944;0.000;0.000;2023-04-03T10:52:22;101817.47;;;22.92;29.05
78625;BME280;67944;0.000;0.000;2023-04-03T10:57:47;101809.97;;;22.96;29.16
78625;BME280;67944;0.000;0.000;2023-04-03T11:00:50;101819.47;;;22.98;29.21
78625;BME280;67944;0.000;0.000;2023-04-03T11:03:29;101811.31;;;23.00;29.22
78625;BME280;67944;0.000;0.000;2023-04-03T11:06:00;101807.00;;;22.99;28.96
78625;BME280;67944;0.000;0.000;2023-04-03T11:08:38;101805.34;;;22.98;29.13
78625;BME280;67944;0.000;0.000;2023-04-03T11:11:24;101800.03;;;22.98;29.07
78625;BME280;67944;0.000;0.000;2023-04-03T11:17:05;101799.19;;;22.97;28.89
78625;BME280;67944;0.000;0.000;2023-04-03T11:19:41;101794.56;;;22.99;28.61
78625;BME280;67944;0.000;0.000;2023-04-03T11:22:42;101802.69;;;22.98;28.88
78625;BME280;67944;0.000;0.000;2023-04-03T11:28:10;101795.06;;;22.95;28.82
78625;BME280;67944;0.000;0.000;2023-04-03T11:33:49;101785.44;;;22.94;28.43
78625;BME280;67944;0.000;0.000;2023-04-03T11:36:26;101788.91;;;22.94;28.55
78625;BME280;67944;0.000;0.000;2023-04-03T11:39:05;101795.06;;;22.95;28.52
78625;BME280;67944;0.000;0.000;2023-04-03T11:41:33;101782.59;;;22.95;28.51
78625;BME280;67944;0.000;0.000;2023-04-03T11:46:53;101785.91;;;22.97;28.15
78625;BME280;67944;0.000;0.000;2023-04-03T11:49:56;101782.09;;;23.00;28.32
78625;BME280;67944;0.000;0.000;2023-04-03T11:58:04;101764.00;;;23.03;28.63
78625;BME280;67944;0.000;0.000;2023-04-03T12:00:52;101762.84;;;23.06;28.49
78625;BME280;67944;0.000;0.000;2023-04-03T12:19:27;101764.19;;;23.10;28.45
78625;BME280;67944;0.000;0.000;2023-04-03T12:24:34;101753.56;;;23.10;28.78
78625;BME280;67944;0.000;0.000;2023-04-03T12:38:14;101744.59;;;22.95;27.28
78625;BME280;67944;0.000;0.000;2023-04-03T12:40:56;101742.09;;;22.93;27.08
78625;BME280;67944;0.000;0.000;2023-04-03T12:43:48;101744.91;;;22.92;26.72
78625;BME280;67944;0.000;0.000;2023-04-03T12:46:21;101732.63;;;22.90;26.48
78625;BME280;67944;0.000;0.000;2023-04-03T12:51:30;101737.78;;;22.92;26.49
78625;BME280;67944;0.000;0.000;2023-04-03T12:54:22;101726.97;;;22.94;26.26
78625;BME280;67944;0.000;0.000;2023-04-03T12:56:48;101736.41;;;22.96;26.26
78625;BME280;67944;0.000;0.000;2023-04-03T12:59:22;101726.63;;;22.97;26.33
78625;BME280;67944;0.000;0.000;2023-04-03T13:01:59;101723.81;;;22.98;26.34
78625;BME280;67944;0.000;0.000;2023-04-03T13:04:31;101721.00;;;23.00;26.40
78625;BME280;67944;0.000;0.000;2023-04-03T13:06:57;101721.81;;;23.00;26.42
78625;BME280;67944;0.000;0.000;2023-04-03T13:09:29;101725.31;;;23.01;26.47
78625;BME280;67944;0.000;0.000;2023-04-03T13:11:59;101715.69;;;23.00;26.75
78625;BME280;67944;0.000;0.000;2023-04-03T13:14:28;101721.00;;;23.00;27.00
78625;BME280;67944;0.000;0.000;2023-04-03T13:17:12;101724.47;;;23.00;26.56
78625;BME280;67944;0.000;0.000;2023-04-03T13:19:39;101727.13;;;23.00;26.72
78625;BME280;67944;0.000;0.000;2023-04-03T13:22:34;101710.19;;;23.01;26.78
78625;BME280;67944;0.000;0.000;2023-04-03T13:25:07;101712.03;;;23.01;26.73
78625;BME280;67944;0.000;0.000;2023-04-03T13:27:35;101700.41;;;23.02;26.81
78625;BME280;67944;0.000;0.000;2023-04-03T13:30:03;101710.19;;;23.01;26.89
78625;BME280;67944;0.000;0.000;2023-04-03T13:32:31;101704.72;;;23.03;27.04
78625;BME280;67944;0.000;0.000;2023-04-03T13:34:58;101706.53;;;23.02;26.79
78625;BME280;67944;0.000;0.000;2023-04-03T13:42:36;101695.09;;;23.02;27.05
78625;BME280;67944;0.000;0.000;2023-04-03T13:45:25;101705.72;;;23.02;27.15
78625;BME280;67944;0.000;0.000;2023-04-03T13:48:10;101703.88;;;23.02;27.10
78625;BME280;67944;0.000;0.000;2023-04-03T13:50:56;101706.53;;;23.02;27.13
78625;BME280;67944;0.000;0.000;2023-04-03T13:53:23;101714.69;;;23.01;26.99
78625;BME280;67944;0.000;0.000;2023-04-03T13:56:05;101706.72;;;23.01;27.23
78625;BME280;67944;0.000;0.000;2023-04-03T13:58:33;101696.25;;;22.99;26.98
78625;BME280;67944;0.000;0.000;2023-04-03T14:01:00;101704.22;;;22.99;27.12
78625;BME280;67944;0.000;0.000;2023-04-03T14:03:43;101705.03;;;23.00;27.17
78625;BME280;67944;0.000;0.000;2023-04-03T14:06:12;101691.09;;;22.98;27.04
78625;BME280;67944;0.000;0.000;2023-04-03T14:08:38;101698.91;;;22.99;27.00
78625;BME280;67944;0.000;0.000;2023-04-03T14:11:05;101693.75;;;22.98;27.03
78625;BME280;67944;0.000;0.000;2023-04-03T14:13:31;101690.25;;;22.97;27.01
78625;BME280;67944;0.000;0.000;2023-04-03T14:15:56;101683.13;;;22.98;27.21
78625;BME280;67944;0.000;0.000;2023-04-03T14:18:22;101687.59;;;22.97;26.96
78625;BME280;67944;0.000;0.000;2023-04-03T14:20:49;101685.94;;;22.96;26.83
78625;BME280;67944;0.000;0.000;2023-04-03T14:23:14;101688.59;;;22.96;27.42
78625;BME280;67944;0.000;0.000;2023-04-03T14:25:40;101682.47;;;22.96;27.07
78625;BME280;67944;0.000;0.000;2023-04-03T14:28:26;101672.03;;;22.94;27.10
78625;BME280;67944;0.000;0.000;2023-04-03T14:30:52;101667.72;;;22.93;27.26
78625;BME280;67944;0.000;0.000;2023-04-03T14:33:21;101665.06;;;22.93;27.17
78625;BME280;67944;0.000;0.000;2023-04-03T14:35:47;101664.22;;;22.93;27.28